Time;durP1;ratioP1;P1;durP2;ratioP2;P2;SDS_P1;SDS_P2;PMS_P1;PMS_P2;Temp;Humidity;BMP_temperature;BMP_pressure;BME280_temperature;BME280_humidity;BME280_pressure;Samples;Min_cycle;Max_cycle;Signal;HPM_P1;HPM_P2
2024/02/11 00:02:58;;;;;;;5.10;1.70;;;;;;;9.72;100.00;95200.50;6157151;28;20196;-55
2024/02/11 00:06:04;;;;;;;8.83;1.60;;;;;;;9.73;100.00;95203.94;6161806;28;20781;-57
2024/02/11 00:09:06;;;;;;;4.40;1.70;;;;;;;9.79;100.00;95202.75;6154727;28;20561;-56
2024/02/11 00:12:09;;;;;;;5.57;1.40;;;;;;;9.80;100.00;95201.66;6164954;28;20213;-56
2024/02/11 00:15:11;;;;;;;6.20;1.33;;;;;;;9.78;100.00;95187.88;6155859;28;20216;-56
2024/02/11 00:18:14;;;;;;;9.63;1.57;;;;;;;9.84;100.00;95194.66;6163156;28;20203;-56
2024/02/11 00:21:17;;;;;;;5.87;1.80;;;;;;;9.79;100.00;95184.13;6143578;28;20689;-55
2024/02/11 00:24:19;;;;;;;2.30;1.20;;;;;;;9.69;100.00;95173.72;6162759;28;20224;-56
2024/02/11 00:27:22;;;;;;;5.33;1.67;;;;;;;9.76;100.00;95172.25;6157913;28;20201;-56
2024/02/11 00:30:27;;;;;;;4.27;1.30;;;;;;;9.71;100.00;95172.34;6162348;28;20602;-55
2024/02/11 00:33:30;;;;;;;4.50;1.40;;;;;;;9.82;100.00;95170.25;6161116;28;20203;-59
2024/02/11 00:36:33;;;;;;;8.40;1.33;;;;;;;9.71;100.00;95185.66;6159491;28;20867;-57
2024/02/11 00:39:35;;;;;;;2.43;1.40;;;;;;;9.67;100.00;95175.91;6149258;28;20673;-55
2024/02/11 00:42:37;;;;;;;1.80;1.00;;;;;;;9.64;100.00;95193.22;6165976;28;20618;-56
2024/02/11 00:45:39;;;;;;;3.90;1.07;;;;;;;9.70;100.00;95188.56;6151613;28;20576;-55
2024/02/11 00:48:45;;;;;;;3.37;1.17;;;;;;;9.61;100.00;95191.16;6154837;28;20542;-55
2024/02/11 00:51:49;;;;;;;1.13;0.90;;;;;;;9.66;100.00;95193.72;6161033;28;20787;-55
2024/02/11 00:54:51;;;;;;;6.47;1.40;;;;;;;9.57;100.00;95206.91;6158670;28;20404;-56
2024/02/11 00:57:54;;;;;;;5.23;1.57;;;;;;;9.51;100.00;95192.16;6153370;28;20339;-56
2024/02/11 01:00:56;;;;;;;2.17;1.30;;;;;;;9.62;100.00;95191.94;6159379;28;20664;-56
2024/02/11 01:03:58;;;;;;;4.13;1.07;;;;;;;9.47;100.00;95191.16;6146413;28;20870;-57
2024/02/11 01:07:00;;;;;;;2.60;1.00;;;;;;;9.54;100.00;95191.53;6162062;28;20238;-57
2024/02/11 01:10:03;;;;;;;3.33;1.03;;;;;;;9.51;100.00;95176.22;6156887;28;20206;-57
2024/02/11 01:13:06;;;;;;;3.00;0.97;;;;;;;9.61;100.00;95179.75;6152574;28;20706;-56
2024/02/11 01:16:08;;;;;;;2.07;1.23;;;;;;;9.48;100.00;95155.53;6158553;28;20193;-57
2024/02/11 01:19:11;;;;;;;4.33;1.10;;;;;;;9.65;100.00;95186.03;6159626;28;20204;-56
2024/02/11 01:22:13;;;;;;;4.53;1.20;;;;;;;9.65;100.00;95189.47;6168140;28;20205;-56
2024/02/11 01:25:24;;;;;;;3.10;1.20;;;;;;;9.61;100.00;95180.53;6161126;28;20200;-57
2024/02/11 01:28:30;;;;;;;2.90;1.10;;;;;;;9.67;100.00;95176.69;6170036;28;20200;-56
2024/02/11 01:31:35;;;;;;;3.07;1.30;;;;;;;9.62;100.00;95160.06;6160850;28;20203;-56
2024/02/11 01:34:38;;;;;;;2.97;1.30;;;;;;;9.65;100.00;95162.88;6160199;28;20217;-56
2024/02/11 01:37:40;;;;;;;3.97;1.60;;;;;;;9.60;100.00;95170.19;6155704;28;20206;-55
2024/02/11 01:40:42;;;;;;;3.47;1.50;;;;;;;9.65;100.00;95168.19;6168985;28;20317;-55
2024/02/11 01:43:45;;;;;;;2.77;1.10;;;;;;;9.65;100.00;95151.47;6157101;28;20201;-57
2024/02/11 01:46:47;;;;;;;2.60;1.30;;;;;;;9.64;100.00;95155.22;6150221;28;20201;-56
2024/02/11 01:49:50;;;;;;;2.20;1.20;;;;;;;9.64;100.00;95155.22;6153541;28;20593;-56
2024/02/11 01:52:55;;;;;;;7.33;1.70;;;;;;;9.61;100.00;95164.59;6163236;28;20882;-56
2024/02/11 01:55:58;;;;;;;3.93;1.50;;;;;;;9.67;100.00;95157.28;6158404;28;20209;-55
2024/02/11 01:59:01;;;;;;;3.70;1.47;;;;;;;9.64;100.00;95163.19;6162063;28;20928;-56
2024/02/11 02:02:08;;;;;;;3.07;1.37;;;;;;;9.65;100.00;95154.13;6155721;28;20202;-55
2024/02/11 02:05:11;;;;;;;1.50;1.03;;;;;;;9.70;100.00;95168.09;6153137;28;20737;-57
2024/02/11 02:08:14;;;;;;;2.47;1.17;;;;;;;9.73;100.00;95150.78;6160795;28;20241;-55
2024/02/11 02:11:16;;;;;;;4.70;1.20;;;;;;;9.73;100.00;95140.94;6153256;28;20198;-56
2024/02/11 02:14:18;;;;;;;2.87;1.53;;;;;;;9.66;100.00;95143.22;6160391;28;20699;-55
2024/02/11 02:17:20;;;;;;;2.67;1.20;;;;;;;9.72;100.00;95135.91;6158487;28;20229;-54
2024/02/11 02:20:23;;;;;;;4.00;1.50;;;;;;;9.68;100.00;95129.63;6163003;28;20220;-56
2024/02/11 02:23:25;;;;;;;5.60;1.33;;;;;;;9.72;100.00;95127.94;6165508;28;20193;-54
2024/02/11 02:26:27;;;;;;;2.93;1.20;;;;;;;9.67;100.00;95107.56;6167828;28;20204;-54
2024/02/11 02:29:29;;;;;;;2.07;1.23;;;;;;;9.75;100.00;95111.38;6160688;28;20226;-56
2024/02/11 02:32:31;;;;;;;2.20;1.00;;;;;;;9.70;100.00;95098.19;6161161;28;20251;-56
2024/02/11 02:35:33;;;;;;;3.50;1.27;;;;;;;9.67;100.00;95085.53;6167331;28;20743;-56
2024/02/11 02:38:35;;;;;;;2.43;1.50;;;;;;;9.75;100.00;95090.91;6166556;28;20198;-56
2024/02/11 02:41:39;;;;;;;2.03;1.27;;;;;;;9.69;100.00;95089.44;6160388;28;20216;-56
2024/02/11 02:44:42;;;;;;;2.17;0.90;;;;;;;9.78;100.00;95073.56;6157391;28;20186;-55
2024/02/11 02:47:46;;;;;;;2.83;1.00;;;;;;;9.69;100.00;95076.16;6156900;28;20219;-55
2024/02/11 02:50:49;;;;;;;2.90;0.87;;;;;;;9.77;100.00;95072.00;6162954;28;20206;-57
2024/02/11 02:53:51;;;;;;;2.97;0.97;;;;;;;9.73;100.00;95081.66;6159845;28;20209;-57
2024/02/11 02:56:53;;;;;;;1.43;1.00;;;;;;;9.76;100.00;95083.72;6150649;28;20281;-57
2024/02/11 02:59:55;;;;;;;3.43;1.17;;;;;;;9.77;100.00;95072.00;6158541;28;20206;-55
2024/02/11 03:02:57;;;;;;;1.20;0.83;;;;;;;9.75;100.00;95082.94;6149300;28;20750;-56
2024/02/11 03:05:59;;;;;;;1.27;0.90;;;;;;;9.80;100.00;95087.34;6161520;28;20247;-56
2024/02/11 03:09:06;;;;;;;2.43;0.87;;;;;;;9.68;100.00;95079.09;6159417;28;20667;-55
2024/02/11 03:12:09;;;;;;;2.37;1.03;;;;;;;9.67;100.00;95074.88;6165931;28;20273;-55
2024/02/11 03:15:11;;;;;;;1.40;1.00;;;;;;;9.66;100.00;95081.28;6162886;28;20212;-53
2024/02/11 03:18:14;;;;;;;1.13;0.80;;;;;;;9.56;100.00;95048.53;6145898;28;20847;-55
2024/02/11 03:21:16;;;;;;;1.17;0.60;;;;;;;9.63;100.00;95074.69;6159503;28;20280;-54
2024/02/11 03:24:19;;;;;;;2.13;0.50;;;;;;;9.49;100.00;95061.44;6161570;28;20206;-55
2024/02/11 03:27:24;;;;;;;0.87;0.70;;;;;;;9.56;100.00;95063.69;6159603;28;20197;-55
2024/02/11 03:30:26;;;;;;;1.87;0.80;;;;;;;9.58;100.00;95053.53;6158588;28;20201;-56
2024/02/11 03:33:30;;;;;;;2.70;0.80;;;;;;;9.73;100.00;95049.75;6165535;28;20300;-55
2024/02/11 03:36:33;;;;;;;2.73;1.27;;;;;;;9.63;100.00;95060.63;6158043;28;20194;-55
2024/02/11 03:39:35;;;;;;;1.43;0.90;;;;;;;9.66;100.00;95052.06;6155695;28;20685;-55
2024/02/11 03:42:38;;;;;;;1.60;0.53;;;;;;;9.73;100.00;95049.75;6150759;28;20565;-56
2024/02/11 03:45:40;;;;;;;0.80;0.50;;;;;;;9.64;100.00;95043.56;6160488;28;20192;-54
2024/02/11 03:48:42;;;;;;;1.43;0.70;;;;;;;9.69;100.00;95033.63;6158578;28;20681;-57
2024/02/11 03:51:46;;;;;;;0.47;0.47;;;;;;;9.66;100.00;95028.13;6161347;28;20585;-56
2024/02/11 03:54:48;;;;;;;0.90;0.80;;;;;;;9.46;100.00;95008.91;6152195;28;20707;-54
2024/02/11 03:57:53;;;;;;;1.53;0.70;;;;;;;9.57;100.00;95012.88;6158162;28;20619;-57
2024/02/11 04:00:55;;;;;;;0.77;0.60;;;;;;;9.60;100.00;95013.38;6157377;28;20345;-56
2024/02/11 04:03:58;;;;;;;0.93;0.60;;;;;;;9.40;100.00;94980.84;6156180;28;20705;-56
2024/02/11 04:07:00;;;;;;;2.17;0.70;;;;;;;9.54;100.00;95018.00;6151429;28;20344;-53
2024/02/11 04:10:17;;;;;;;0.63;0.53;;;;;;;9.59;100.00;95027.75;6155919;28;20656;-55
2024/02/11 04:13:24;;;;;;;1.10;0.60;;;;;;;9.51;100.00;95043.34;6136011;28;20222;-57
2024/02/11 04:16:28;;;;;;;1.27;0.80;;;;;;;9.43;100.00;95038.72;6131077;28;20782;-57
2024/02/11 04:19:32;;;;;;;1.13;0.77;;;;;;;9.47;100.00;95021.09;6149621;28;20662;-55
2024/02/11 04:22:36;;;;;;;0.60;0.60;;;;;;;9.44;100.00;95032.31;6157953;28;20196;-53
2024/02/11 04:25:39;;;;;;;1.10;0.80;;;;;;;9.55;100.00;95027.56;6156925;28;20210;-56
2024/02/11 04:28:42;;;;;;;2.10;0.97;;;;;;;9.50;100.00;95027.66;6155588;28;20693;-55
2024/02/11 04:31:44;;;;;;;0.97;0.77;;;;;;;9.53;100.00;95040.38;6149045;28;20227;-55
2024/02/11 04:34:46;;;;;;;1.83;0.93;;;;;;;9.33;100.00;95022.22;6155359;28;20716;-56
2024/02/11 04:37:55;;;;;;;0.70;0.70;;;;;;;9.51;100.00;95048.66;6133154;28;20196;-56
2024/02/11 04:41:00;;;;;;;0.83;0.70;;;;;;;9.28;100.00;95013.25;6159941;28;20564;-54
2024/02/11 04:44:05;;;;;;;1.43;0.80;;;;;;;9.45;100.00;95049.81;6162150;28;20229;-55
2024/02/11 04:47:09;;;;;;;2.23;0.60;;;;;;;9.52;100.00;95047.56;6158597;28;20203;-57
2024/02/11 04:50:11;;;;;;;2.80;0.90;;;;;;;9.32;100.00;95039.25;6150367;28;20242;-57
2024/02/11 04:53:17;;;;;;;1.90;0.90;;;;;;;9.45;100.00;95043.72;6155006;28;20219;-56
2024/02/11 04:56:20;;;;;;;1.90;1.00;;;;;;;9.47;100.00;95038.91;6144464;28;20568;-56
2024/02/11 04:59:22;;;;;;;2.53;0.83;;;;;;;9.70;100.00;95042.38;6157978;28;20678;-55
2024/02/11 05:02:25;;;;;;;1.33;1.00;;;;;;;9.72;100.00;95048.19;6159751;28;20207;-56
2024/02/11 05:05:30;;;;;;;2.27;1.13;;;;;;;9.63;100.00;95029.50;6154577;28;20195;-56
2024/02/11 05:08:33;;;;;;;1.13;0.90;;;;;;;9.49;100.00;95034.84;6163160;28;20662;-56
2024/02/11 05:11:35;;;;;;;1.63;0.90;;;;;;;9.44;100.00;95040.28;6154633;28;20197;-55
2024/02/11 05:14:40;;;;;;;1.07;0.97;;;;;;;9.40;100.00;95036.66;6169880;28;20220;-57
2024/02/11 05:17:44;;;;;;;2.80;1.20;;;;;;;9.41;100.00;95042.75;6165406;28;20213;-57
2024/02/11 05:20:46;;;;;;;1.07;0.97;;;;;;;9.39;100.00;95029.75;6161918;28;20205;-56
2024/02/11 05:23:49;;;;;;;1.73;1.00;;;;;;;9.51;100.00;95047.88;6154804;28;20280;-56
2024/02/11 05:26:51;;;;;;;1.93;1.20;;;;;;;9.33;100.00;95049.56;6167655;28;20657;-55
2024/02/11 05:29:54;;;;;;;1.20;1.10;;;;;;;9.21;100.00;95047.44;6157286;28;20618;-56
2024/02/11 05:32:57;;;;;;;1.33;1.00;;;;;;;9.35;100.00;95057.22;6163900;28;20204;-55
2024/02/11 05:36:04;;;;;;;4.10;1.20;;;;;;;9.14;100.00;95035.63;6156166;28;20192;-56
2024/02/11 05:39:09;;;;;;;1.50;1.10;;;;;;;9.31;100.00;95062.38;6167578;28;20577;-55
2024/02/11 05:42:12;;;;;;;1.93;1.43;;;;;;;9.26;100.00;95044.66;6159446;28;20208;-56
2024/02/11 05:45:15;;;;;;;2.40;1.60;;;;;;;9.43;100.00;95045.91;6165701;28;20190;-57
2024/02/11 05:48:17;;;;;;;2.00;1.40;;;;;;;9.44;100.00;95053.56;6166924;28;20681;-58
2024/02/11 05:51:21;;;;;;;2.77;1.43;;;;;;;9.39;100.00;95032.41;6160954;28;20287;-57
2024/02/11 05:54:24;;;;;;;2.13;1.43;;;;;;;9.30;100.00;95040.31;6161711;28;20793;-56
2024/02/11 05:57:28;;;;;;;3.50;1.50;;;;;;;9.23;100.00;95023.22;6151057;28;20724;-55
2024/02/11 06:00:31;;;;;;;3.37;1.50;;;;;;;9.30;100.00;95053.59;6161943;28;20671;-56
2024/02/11 06:03:35;;;;;;;3.00;1.70;;;;;;;9.50;100.00;95057.69;6162981;28;20187;-57
2024/02/11 06:06:39;;;;;;;1.90;1.27;;;;;;;9.36;100.00;95062.25;6156043;28;20239;-57
2024/02/11 06:09:41;;;;;;;2.67;1.83;;;;;;;9.24;100.00;95061.97;6169251;28;20247;-55
2024/02/11 06:12:45;;;;;;;2.40;1.57;;;;;;;9.08;100.00;95069.47;6165918;28;20225;-55
2024/02/11 06:15:47;;;;;;;1.50;1.40;;;;;;;9.17;100.00;95074.88;6138526;28;20900;-54
2024/02/11 06:18:50;;;;;;;2.53;1.50;;;;;;;9.10;100.00;95077.91;6160844;28;20820;-56
2024/02/11 06:21:54;;;;;;;1.57;1.47;;;;;;;8.99;100.00;95081.84;6161445;28;20212;-54
2024/02/11 06:24:57;;;;;;;2.77;1.37;;;;;;;8.94;100.00;95080.09;5281608;28;10000593;-54
2024/02/11 06:28:01;;;;;;;2.20;1.70;;;;;;;8.90;100.00;95057.84;6159829;28;20187;-55
2024/02/11 06:31:03;;;;;;;2.13;1.87;;;;;;;9.03;100.00;95086.28;6151314;28;20194;-56
2024/02/11 06:34:06;;;;;;;4.50;2.00;;;;;;;9.05;100.00;95084.09;6168163;28;20884;-57
2024/02/11 06:37:09;;;;;;;3.07;1.83;;;;;;;9.21;100.00;95091.78;6162885;28;20260;-56
2024/02/11 06:40:17;;;;;;;2.73;1.87;;;;;;;9.22;100.00;95088.84;6156953;28;20681;-56
2024/02/11 06:43:21;;;;;;;1.80;1.70;;;;;;;9.23;100.00;95094.94;6153734;28;20278;-57
2024/02/11 06:46:23;;;;;;;2.93;2.00;;;;;;;9.19;100.00;95096.59;6161839;28;20572;-57
2024/02/11 06:49:28;;;;;;;2.57;2.03;;;;;;;9.22;100.00;95099.47;6160177;28;20214;-56
2024/02/11 06:52:30;;;;;;;1.77;1.67;;;;;;;9.32;100.00;95106.44;6157402;28;20192;-56
2024/02/11 06:55:32;;;;;;;2.10;1.70;;;;;;;9.29;100.00;95113.13;6167514;28;20221;-56
2024/02/11 06:58:37;;;;;;;3.47;2.03;;;;;;;9.16;100.00;95103.31;6165059;28;20568;-55
2024/02/11 07:01:41;;;;;;;2.63;1.77;;;;;;;9.32;100.00;95113.63;6164185;28;20201;-56
2024/02/11 07:04:43;;;;;;;1.83;1.50;;;;;;;9.34;100.00;95114.88;6155941;28;20202;-55
2024/02/11 07:07:46;;;;;;;1.93;1.53;;;;;;;9.33;100.00;95118.63;6165346;28;20807;-55
2024/02/11 07:10:48;;;;;;;1.80;1.70;;;;;;;9.36;100.00;95119.91;6160754;28;20742;-56
2024/02/11 07:13:52;;;;;;;1.97;1.60;;;;;;;9.30;100.00;95116.56;6161036;28;20210;-54
2024/02/11 07:16:55;;;;;;;1.60;1.50;;;;;;;9.29;100.00;95120.31;6167279;28;20668;-53
2024/02/11 07:19:57;;;;;;;1.60;1.40;;;;;;;9.23;100.00;95118.84;6152442;28;20690;-55
2024/02/11 07:22:59;;;;;;;2.07;1.70;;;;;;;9.21;100.00;95123.66;6162327;28;20279;-55
2024/02/11 07:26:01;;;;;;;2.03;1.40;;;;;;;9.19;100.00;95120.50;6155505;28;21064;-55
2024/02/11 07:29:03;;;;;;;2.73;1.67;;;;;;;9.16;100.00;95129.88;6161948;28;20635;-55
2024/02/11 07:32:06;;;;;;;1.60;1.50;;;;;;;9.24;100.00;95123.06;6136726;28;20347;-56
2024/02/11 07:35:08;;;;;;;1.63;1.50;;;;;;;9.32;100.00;95127.69;6156867;28;20287;-56
2024/02/11 07:38:10;;;;;;;1.70;1.53;;;;;;;9.32;100.00;95130.34;6145015;28;20198;-55
2024/02/11 07:41:13;;;;;;;2.03;1.30;;;;;;;9.34;100.00;95120.22;6154365;28;20201;-55
2024/02/11 07:44:15;;;;;;;1.63;1.40;;;;;;;9.49;100.00;95133.19;6149619;28;20283;-56
2024/02/11 07:47:17;;;;;;;1.63;1.30;;;;;;;9.44;100.00;95135.94;6157192;28;20189;-55
2024/02/11 07:50:19;;;;;;;2.03;1.20;;;;;;;9.47;100.00;95131.91;6153781;28;20239;-56
2024/02/11 07:53:21;;;;;;;1.13;1.03;;;;;;;9.50;100.00;95140.06;6166341;28;20306;-55
2024/02/11 07:56:25;;;;;;;2.23;1.40;;;;;;;9.52;100.00;95137.13;6151232;28;20264;-54
2024/02/11 07:59:27;;;;;;;1.50;1.40;;;;;;;9.54;100.00;95133.06;6158032;28;20214;-58
2024/02/11 08:02:31;;;;;;;1.30;1.20;;;;;;;9.42;100.00;95119.53;6149936;28;20195;-55
2024/02/11 08:05:36;;;;;;;1.10;1.00;;;;;;;9.39;100.00;95112.13;6164395;28;20196;-56
2024/02/11 08:08:39;;;;;;;1.20;1.10;;;;;;;9.46;100.00;95130.34;6158499;28;20201;-54
2024/02/11 08:11:41;;;;;;;1.20;1.10;;;;;;;9.65;100.00;95130.19;6160478;28;20847;-55
2024/02/11 08:14:43;;;;;;;1.20;1.07;;;;;;;9.65;100.00;95140.84;6167195;28;20613;-56
2024/02/11 08:17:45;;;;;;;1.07;0.93;;;;;;;9.59;100.00;95147.34;6162172;28;20195;-56
2024/02/11 08:20:47;;;;;;;1.40;1.27;;;;;;;9.63;100.00;95143.81;6157130;28;20198;-57
2024/02/11 08:23:49;;;;;;;0.87;0.83;;;;;;;9.65;100.00;95148.81;6153227;28;20198;-56
2024/02/11 08:26:51;;;;;;;0.90;0.90;;;;;;;9.65;100.00;95152.25;6160080;28;20213;-54
2024/02/11 08:29:54;;;;;;;1.70;1.10;;;;;;;9.76;100.00;95145.66;6159885;28;20209;-56
2024/02/11 08:32:57;;;;;;;0.83;0.83;;;;;;;9.67;100.00;95142.13;6158847;28;20212;-56
2024/02/11 08:36:00;;;;;;;0.70;0.67;;;;;;;9.56;100.00;95138.91;6162504;28;20218;-56
2024/02/11 08:39:02;;;;;;;2.37;0.90;;;;;;;9.75;100.00;95172.53;6150274;28;20212;-55
2024/02/11 08:42:07;;;;;;;1.07;0.97;;;;;;;9.77;100.00;95171.16;6164216;28;20206;-55
2024/02/11 08:45:11;;;;;;;0.80;0.73;;;;;;;9.78;100.00;95174.59;6158460;28;20208;-56
2024/02/11 08:48:14;;;;;;;1.13;0.90;;;;;;;9.94;100.00;95181.16;6172226;28;20205;-56
2024/02/11 08:51:20;;;;;;;1.37;0.80;;;;;;;9.89;100.00;95183.94;6163359;28;20206;-56
2024/02/11 08:54:23;;;;;;;1.33;0.97;;;;;;;9.90;100.00;95190.84;6159946;28;20210;-55
2024/02/11 08:57:26;;;;;;;2.07;0.70;;;;;;;9.92;100.00;95190.53;6165425;28;20644;-56
2024/02/11 09:00:29;;;;;;;0.80;0.80;;;;;;;9.93;100.00;95195.53;6163751;28;20676;-55
2024/02/11 09:03:32;;;;;;;1.17;0.80;;;;;;;10.12;100.00;95200.72;6163557;28;20206;-55
2024/02/11 09:06:34;;;;;;;0.97;0.97;;;;;;;10.06;100.00;95213.38;6161705;28;20232;-55
2024/02/11 09:09:36;;;;;;;0.70;0.70;;;;;;;10.07;100.00;95209.59;6156328;28;20654;-57
2024/02/11 09:12:39;;;;;;;0.77;0.70;;;;;;;10.08;100.00;95208.50;6166039;28;20205;-55
2024/02/11 09:15:42;;;;;;;0.73;0.70;;;;;;;10.15;100.00;95221.44;6159959;28;20852;-56
2024/02/11 09:18:44;;;;;;;0.70;0.67;;;;;;;10.17;100.00;95213.91;6156685;28;20210;-56
2024/02/11 09:21:46;;;;;;;0.87;0.63;;;;;;;10.22;100.00;95215.69;6147888;28;20336;-58
2024/02/11 09:24:48;;;;;;;0.77;0.70;;;;;;;10.25;100.00;95220.44;6160739;28;20194;-55
2024/02/11 09:27:51;;;;;;;2.87;0.70;;;;;;;10.26;100.00;95222.03;6159805;28;20197;-55
2024/02/11 09:30:53;;;;;;;0.60;0.60;;;;;;;10.22;100.00;95226.34;6158969;28;20685;-55
2024/02/11 09:33:55;;;;;;;0.70;0.63;;;;;;;10.41;100.00;95236.88;6150875;28;20208;-56
2024/02/11 09:36:57;;;;;;;1.43;1.17;;;;;;;10.27;100.00;95240.34;6129659;28;20213;-56
2024/02/11 09:39:59;;;;;;;0.60;0.60;;;;;;;10.27;100.00;95237.69;6161681;28;20957;-57
2024/02/11 09:43:04;;;;;;;0.63;0.60;;;;;;;10.22;100.00;95231.66;6168582;28;20205;-56
2024/02/11 09:46:07;;;;;;;0.80;0.80;;;;;;;10.22;100.00;95243.09;6152375;28;20216;-56
2024/02/11 09:49:18;;;;;;;0.70;0.70;;;;;;;10.26;100.00;95244.09;6165097;28;20206;-56
2024/02/11 09:52:21;;;;;;;0.80;0.80;;;;;;;10.28;100.00;95238.47;6159831;28;20218;-57
2024/02/11 09:55:24;;;;;;;0.77;0.53;;;;;;;10.45;100.00;95251.94;6160644;28;20225;-57
2024/02/11 09:58:26;;;;;;;1.17;0.80;;;;;;;10.50;100.00;95253.69;6166901;28;20189;-56
2024/02/11 10:01:33;;;;;;;1.07;0.60;;;;;;;10.53;100.00;95251.19;6161193;28;20678;-57
2024/02/11 10:04:37;;;;;;;1.00;0.70;;;;;;;10.49;100.00;95247.59;6160693;28;20185;-55
2024/02/11 10:07:44;;;;;;;0.67;0.67;;;;;;;10.62;100.00;95263.81;6170661;28;20241;-54
2024/02/11 10:10:49;;;;;;;0.70;0.70;;;;;;;10.92;100.00;95264.97;6154831;28;20289;-57
2024/02/11 10:13:51;;;;;;;0.87;0.70;;;;;;;10.91;100.00;95261.53;6155768;28;20280;-57
2024/02/11 10:16:53;;;;;;;1.00;0.80;;;;;;;10.78;100.00;95262.34;6157340;28;20874;-55
2024/02/11 10:19:55;;;;;;;0.87;0.83;;;;;;;10.68;100.00;95265.25;6162939;28;20230;-55
2024/02/11 10:22:58;;;;;;;1.00;1.00;;;;;;;10.65;100.00;95271.19;6163234;28;20229;-56
2024/02/11 10:26:00;;;;;;;1.47;1.10;;;;;;;10.63;100.00;95266.16;6159148;28;20198;-56
2024/02/11 10:29:05;;;;;;;0.70;0.70;;;;;;;10.61;100.00;95276.34;6160950;28;20672;-56
2024/02/11 10:32:13;;;;;;;0.73;0.73;;;;;;;10.56;100.00;95271.13;6163517;28;20273;-56
2024/02/11 10:35:17;;;;;;;0.70;0.70;;;;;;;10.49;100.00;95273.41;6161029;28;20286;-56
2024/02/11 10:38:19;;;;;;;0.70;0.60;;;;;;;10.57;100.00;95276.13;6137175;28;20779;-55
2024/02/11 10:41:26;;;;;;;0.80;0.80;;;;;;;10.63;100.00;95281.34;6154053;28;20206;-55
2024/02/11 10:44:29;;;;;;;0.73;0.73;;;;;;;10.59;100.00;95273.19;6156033;28;20586;-55
2024/02/11 10:47:32;;;;;;;0.87;0.80;;;;;;;10.70;100.00;95279.06;6155985;28;20202;-53
2024/02/11 10:50:34;;;;;;;1.23;0.87;;;;;;;10.65;100.00;95274.66;6154920;28;20203;-58
2024/02/11 10:53:40;;;;;;;0.80;0.70;;;;;;;10.62;100.00;95279.78;6150781;28;20187;-55
2024/02/11 10:56:43;;;;;;;0.90;0.90;;;;;;;10.44;100.00;95263.69;6156575;28;20754;-56
2024/02/11 10:59:59;;;;;;;0.80;0.80;;;;;;;10.53;100.00;95285.03;6161301;28;20563;-56
2024/02/11 11:03:07;;;;;;;1.97;0.90;;;;;;;10.53;100.00;95287.69;6156059;28;21032;-53
2024/02/11 11:06:12;;;;;;;2.47;0.87;;;;;;;10.48;100.00;95290.47;6160199;28;20313;-54
2024/02/11 11:09:16;;;;;;;1.03;0.90;;;;;;;10.46;100.00;95292.63;6159801;28;20790;-56
2024/02/11 11:12:18;;;;;;;0.87;0.87;;;;;;;10.46;100.00;95293.44;6151749;28;20778;-56
2024/02/11 11:15:26;;;;;;;1.00;1.00;;;;;;;10.44;100.00;95297.47;6165334;28;20213;-56
2024/02/11 11:18:34;;;;;;;0.90;0.90;;;;;;;10.42;100.00;95297.78;6161440;28;20310;-55
2024/02/11 11:21:37;;;;;;;1.60;1.43;;;;;;;10.23;100.00;95268.59;6157079;28;20206;-55
2024/02/11 11:24:39;;;;;;;0.97;0.87;;;;;;;10.44;100.00;95308.09;6158914;28;20198;-54
2024/02/11 11:27:41;;;;;;;1.30;1.00;;;;;;;10.46;100.00;95308.63;6151837;28;20230;-56
2024/02/11 11:30:43;;;;;;;1.63;1.10;;;;;;;10.36;100.00;95311.50;6155510;28;20202;-55
2024/02/11 11:33:45;;;;;;;1.30;1.20;;;;;;;10.38;100.00;95312.75;6160695;28;20219;-55
2024/02/11 11:36:48;;;;;;;1.40;1.20;;;;;;;10.35;100.00;95305.38;6141285;28;20229;-55
2024/02/11 11:39:54;;;;;;;2.50;1.23;;;;;;;10.16;100.00;95280.75;6163731;28;20573;-56
2024/02/11 11:42:56;;;;;;;1.70;1.60;;;;;;;10.43;100.00;95309.97;6162400;28;20641;-55
2024/02/11 11:46:03;;;;;;;2.43;1.90;;;;;;;10.36;100.00;95322.13;6151966;28;20679;-56
2024/02/11 11:49:08;;;;;;;2.10;1.90;;;;;;;10.36;100.00;95322.13;6142657;28;20706;-56
2024/02/11 11:52:10;;;;;;;2.73;2.20;;;;;;;10.27;100.00;95330.03;6155465;28;20349;-55
2024/02/11 11:55:13;;;;;;;1.93;1.27;;;;;;;10.05;100.00;95333.38;6159683;28;20299;-55
2024/02/11 11:58:22;;;;;;;2.40;1.50;;;;;;;10.00;100.00;95342.22;6148557;28;20297;-54
2024/02/11 12:01:24;;;;;;;1.53;1.27;;;;;;;9.96;100.00;95335.91;6149329;28;20675;-55
2024/02/11 12:04:26;;;;;;;1.37;1.00;;;;;;;9.99;100.00;95334.53;6159336;28;20665;-56
2024/02/11 12:07:32;;;;;;;1.03;0.90;;;;;;;9.65;100.00;95337.53;6157400;28;20757;-55
2024/02/11 12:10:34;;;;;;;0.50;0.50;;;;;;;9.37;100.00;95356.09;6161133;28;20610;-56
2024/02/11 12:13:38;;;;;;;1.80;0.50;;;;;;;9.28;100.00;95347.22;6160015;28;20196;-56
2024/02/11 12:16:42;;;;;;;0.30;0.30;;;;;;;9.28;100.00;95355.97;6159039;28;20218;-56
2024/02/11 12:19:45;;;;;;;0.30;0.30;;;;;;;9.16;100.00;95362.78;6157915;28;20210;-55
2024/02/11 12:22:47;;;;;;;0.80;0.20;;;;;;;9.15;100.00;95374.50;6153709;28;20204;-56
2024/02/11 12:26:04;;;;;;;0.20;0.20;;;;;;;9.08;100.00;95382.84;6148429;28;20227;-56
2024/02/11 12:29:06;;;;;;;0.27;0.20;;;;;;;8.89;100.00;95387.38;6139605;28;20572;-55
2024/02/11 12:32:12;;;;;;;0.30;0.23;;;;;;;8.35;97.75;95360.16;6155035;28;20704;-56
2024/02/11 12:35:14;;;;;;;0.73;0.20;;;;;;;8.33;100.00;95388.06;6166517;28;20218;-54
2024/02/11 12:38:16;;;;;;;0.27;0.27;;;;;;;8.36;100.00;95380.34;6158745;28;20314;-53
2024/02/11 12:41:24;;;;;;;0.20;0.20;;;;;;;8.27;100.00;95409.34;6152586;28;20198;-56
2024/02/11 12:44:26;;;;;;;0.37;0.20;;;;;;;7.85;100.00;95380.88;6155428;28;20263;-55
2024/02/11 12:47:29;;;;;;;0.20;0.20;;;;;;;7.70;100.00;95370.44;6156720;28;20201;-54
2024/02/11 12:50:31;;;;;;;0.17;0.17;;;;;;;7.83;100.00;95398.13;6155972;28;20338;-55
2024/02/11 12:53:35;;;;;;;0.30;0.30;;;;;;;7.67;100.00;95392.97;6158579;28;20194;-55
2024/02/11 12:56:37;;;;;;;0.30;0.30;;;;;;;7.68;100.00;95399.06;6159119;28;20205;-55
2024/02/11 12:59:39;;;;;;;0.20;0.20;;;;;;;7.68;100.00;95388.47;6153106;28;20199;-56
2024/02/11 13:02:42;;;;;;;0.20;0.20;;;;;;;7.67;99.60;95403.56;6157775;28;20301;-55
2024/02/11 13:05:44;;;;;;;1.20;0.27;;;;;;;7.65;100.00;95418.19;6150224;28;20203;-55
2024/02/11 13:08:47;;;;;;;0.20;0.20;;;;;;;7.30;100.00;95377.69;6159183;28;20675;-56
2024/02/11 13:11:49;;;;;;;0.10;0.10;;;;;;;7.33;99.58;95410.75;6156281;28;20202;-56
2024/02/11 13:14:51;;;;;;;0.20;0.20;;;;;;;7.21;99.91;95416.41;6163799;28;20702;-55
2024/02/11 13:17:54;;;;;;;0.23;0.23;;;;;;;7.20;100.00;95404.25;6169752;28;20283;-53
2024/02/11 13:20:57;;;;;;;0.20;0.20;;;;;;;7.26;100.00;95407.63;6164742;28;20212;-55
2024/02/11 13:24:00;;;;;;;0.10;0.10;;;;;;;7.11;98.82;95419.13;6159738;28;20197;-55
2024/02/11 13:27:02;;;;;;;0.10;0.10;;;;;;;7.16;99.03;95425.16;6148756;28;20201;-55
2024/02/11 13:30:07;;;;;;;0.53;0.30;;;;;;;7.14;99.67;95429.16;6169656;28;20707;-55
2024/02/11 13:33:09;;;;;;;0.13;0.13;;;;;;;7.05;100.00;95433.47;6163400;28;20203;-53
2024/02/11 13:36:13;;;;;;;0.10;0.10;;;;;;;7.07;100.00;95461.22;6158879;28;20240;-55
2024/02/11 13:39:18;;;;;;;0.20;0.20;;;;;;;7.05;100.00;95442.19;6161970;28;20566;-56
2024/02/11 13:42:20;;;;;;;2.57;0.20;;;;;;;7.06;96.81;95461.50;6171891;28;20201;-54
2024/02/11 13:45:22;;;;;;;0.10;0.10;;;;;;;6.82;100.00;95448.94;6165121;28;20695;-53
2024/02/11 13:48:24;;;;;;;0.20;0.20;;;;;;;6.83;100.00;95439.91;6161623;28;20194;-56
2024/02/11 13:51:28;;;;;;;0.20;0.20;;;;;;;6.86;100.00;95470.34;6151799;28;20656;-54
2024/02/11 13:54:30;;;;;;;0.37;0.20;;;;;;;6.77;99.61;95474.63;6158075;28;20202;-54
2024/02/11 13:57:32;;;;;;;0.40;0.20;;;;;;;6.68;96.55;95458.53;6164605;28;20217;-55
2024/02/11 14:00:34;;;;;;;0.20;0.20;;;;;;;6.54;97.01;95478.69;6164522;28;20295;-54
2024/02/11 14:03:37;;;;;;;0.30;0.30;;;;;;;6.58;98.69;95492.94;6167174;28;20918;-58
2024/02/11 14:06:39;;;;;;;0.10;0.10;;;;;;;6.56;96.48;95472.06;6155281;28;20236;-57
2024/02/11 14:09:44;;;;;;;0.20;0.20;;;;;;;6.50;99.03;95502.22;6160130;28;20252;-56
2024/02/11 14:12:48;;;;;;;0.10;0.10;;;;;;;6.54;96.44;95486.59;6157781;28;20758;-57
2024/02/11 14:15:53;;;;;;;0.27;0.27;;;;;;;6.55;95.51;95483.72;6161874;28;20709;-55
2024/02/11 14:18:55;;;;;;;1.80;0.20;;;;;;;6.55;96.99;95496.94;6155654;28;20572;-54
2024/02/11 14:21:59;;;;;;;0.27;0.20;;;;;;;6.60;95.38;95490.81;6158328;28;20547;-55